createdAt,value
2018-08-30T00:00:53.773Z,43.58
2018-08-30T00:03:20.412Z,43.61
2018-08-30T00:05:47.099Z,43.57
2018-08-30T00:08:13.765Z,43.56
2018-08-30T00:10:40.495Z,43.65
2018-08-30T00:13:07.236Z,43.60
2018-08-30T00:15:33.888Z,43.62
2018-08-30T00:18:00.550Z,43.64
2018-08-30T00:20:27.265Z,43.62
2018-08-30T00:22:56.573Z,43.67
2018-08-30T00:25:23.254Z,43.71
2018-08-30T00:27:49.925Z,43.74
2018-08-30T00:30:16.573Z,43.74
2018-08-30T00:32:43.298Z,43.75
2018-08-30T00:35:09.956Z,43.74
2018-08-30T00:37:36.593Z,43.76
2018-08-30T00:40:03.284Z,43.78
2018-08-30T00:42:29.950Z,43.69
2018-08-30T00:44:56.635Z,43.82
2018-08-30T00:47:23.282Z,43.68
2018-08-30T00:49:49.937Z,43.83
2018-08-30T00:52:16.575Z,43.88
2018-08-30T00:54:43.229Z,43.88
2018-08-30T00:57:09.896Z,43.91
2018-08-30T00:59:36.532Z,43.90
2018-08-30T01:02:03.242Z,43.92
2018-08-30T01:04:30.585Z,43.96
2018-08-30T01:07:00.467Z,43.92
2018-08-30T01:09:27.109Z,43.90
2018-08-30T01:11:53.753Z,43.95
2018-08-30T01:14:20.706Z,43.93
2018-08-30T01:16:47.360Z,44.00
2018-08-30T01:19:14.097Z,44.02
2018-08-30T01:21:40.729Z,43.98
2018-08-30T01:24:07.364Z,43.99
2018-08-30T01:26:34.016Z,44.03
2018-08-30T01:29:00.732Z,44.04
2018-08-30T01:31:27.332Z,44.00
2018-08-30T01:33:54.006Z,43.99
2018-08-30T01:36:20.787Z,44.00
2018-08-30T01:38:47.470Z,44.00
2018-08-30T01:41:15.656Z,44.05
2018-08-30T01:43:40.804Z,44.06
2018-08-30T01:46:07.442Z,44.05
2018-08-30T01:48:34.093Z,44.15
2018-08-30T01:51:00.761Z,44.14
2018-08-30T01:53:27.492Z,44.15
2018-08-30T01:55:54.173Z,44.17
2018-08-30T01:58:20.816Z,44.17
2018-08-30T02:00:47.578Z,44.11
2018-08-30T02:03:17.417Z,44.18
2018-08-30T02:05:44.050Z,44.17
2018-08-30T02:08:10.684Z,44.25
2018-08-30T02:10:37.380Z,44.18
2018-08-30T02:13:04.032Z,44.28
2018-08-30T02:15:30.675Z,44.27
2018-08-30T02:17:57.416Z,44.30
2018-08-30T02:20:24.092Z,44.28
2018-08-30T02:22:50.725Z,44.35
2018-08-30T02:25:17.473Z,44.27
2018-08-30T02:27:44.126Z,44.17
2018-08-30T02:30:10.763Z,44.23
2018-08-30T02:32:37.449Z,44.19
2018-08-30T02:35:05.452Z,44.30
2018-08-30T02:37:30.790Z,44.26
2018-08-30T02:39:57.427Z,44.36
2018-08-30T02:42:24.143Z,44.41
2018-08-30T02:44:50.825Z,44.40
2018-08-30T02:47:17.521Z,44.45
2018-08-30T02:49:44.170Z,44.33
2018-08-30T02:52:10.855Z,44.38
2018-08-30T02:54:37.489Z,44.46
2018-08-30T02:57:04.193Z,44.42
2018-08-30T02:59:30.823Z,44.43
2018-08-30T03:01:57.511Z,44.42
2018-08-30T03:04:24.174Z,44.48
2018-08-30T03:06:50.813Z,44.45
2018-08-30T03:09:17.527Z,44.40
2018-08-30T03:11:44.158Z,44.64
2018-08-30T03:14:10.801Z,44.60
2018-08-30T03:16:37.478Z,44.66
2018-08-30T03:19:04.202Z,44.65
2018-08-30T03:21:33.886Z,45.04
2018-08-30T03:24:01.919Z,45.16
2018-08-30T03:26:27.204Z,45.64
2018-08-30T03:28:53.852Z,45.56
2018-08-30T03:31:20.490Z,45.62
2018-08-30T03:33:47.178Z,45.83
2018-08-30T03:36:13.834Z,45.75
2018-08-30T03:38:40.594Z,45.66
2018-08-30T03:41:07.308Z,45.77
2018-08-30T03:43:33.923Z,45.64
2018-08-30T03:46:00.590Z,45.80
2018-08-30T03:48:27.227Z,46.20
2018-08-30T03:50:53.922Z,46.13
2018-08-30T03:53:20.557Z,46.07
2018-08-30T03:55:47.213Z,46.17
2018-08-30T03:58:16.843Z,46.20
2018-08-30T04:00:43.494Z,46.21
2018-08-30T04:03:10.137Z,46.22
2018-08-30T04:05:37.787Z,46.20
2018-08-30T04:08:03.467Z,46.21
2018-08-30T04:10:30.130Z,46.19
2018-08-30T04:12:56.776Z,46.31
2018-08-30T04:15:23.440Z,46.56
2018-08-30T04:17:50.159Z,46.76
2018-08-30T04:20:16.811Z,46.71
2018-08-30T04:22:43.492Z,46.70
2018-08-30T04:25:10.121Z,46.64
2018-08-30T04:27:36.802Z,46.76
2018-08-30T04:30:03.452Z,46.96
2018-08-30T04:32:30.084Z,46.83
2018-08-30T04:34:56.720Z,46.95
2018-08-30T04:37:23.373Z,46.76
2018-08-30T04:39:50.009Z,46.73
2018-08-30T04:42:16.761Z,46.71
2018-08-30T04:44:43.383Z,46.70
2018-08-30T04:47:11.329Z,46.49
2018-08-30T04:49:36.744Z,46.42
2018-08-30T04:52:03.440Z,46.48
2018-08-30T04:54:33.384Z,46.37
2018-08-30T04:57:00.060Z,46.52
2018-08-30T04:59:26.708Z,46.57
2018-08-30T05:01:56.539Z,46.39
2018-08-30T05:04:23.248Z,46.70
2018-08-30T05:06:49.900Z,46.67
2018-08-30T05:09:16.554Z,46.66
2018-08-30T05:11:43.224Z,46.44
2018-08-30T05:14:09.891Z,46.33
2018-08-30T05:16:36.518Z,46.01
2018-08-30T05:19:03.203Z,46.09
2018-08-30T05:21:31.196Z,46.16
2018-08-30T05:23:59.502Z,46.11
2018-08-30T05:26:26.166Z,45.81
2018-08-30T05:28:52.792Z,46.01
2018-08-30T05:31:19.447Z,46.33
2018-08-30T05:33:46.101Z,46.56
2018-08-30T05:36:12.758Z,46.20
2018-08-30T05:38:39.422Z,46.15
2018-08-30T05:41:06.071Z,46.49
2018-08-30T05:43:32.702Z,46.74
2018-08-30T05:45:59.366Z,46.57
2018-08-30T05:48:25.998Z,46.34
2018-08-30T05:50:52.722Z,46.05
2018-08-30T05:53:19.445Z,45.66
2018-08-30T05:55:46.198Z,46.37
2018-08-30T05:58:12.918Z,45.97
2018-08-30T06:00:39.760Z,45.76
2018-08-30T06:03:06.444Z,46.11
2018-08-30T06:05:36.397Z,46.22
2018-08-30T06:08:03.056Z,46.37
2018-08-30T06:10:29.718Z,46.27
2018-08-30T06:12:59.297Z,46.05
2018-08-30T06:15:25.952Z,46.03
2018-08-30T06:17:52.708Z,45.66
2018-08-30T06:20:19.441Z,45.37
2018-08-30T06:22:46.063Z,45.08
2018-08-30T06:25:12.734Z,44.73
2018-08-30T06:27:39.348Z,43.92
2018-08-30T06:30:05.989Z,44.09
2018-08-30T06:32:32.645Z,43.58
2018-08-30T06:34:59.285Z,43.77
2018-08-30T06:37:25.949Z,43.85
2018-08-30T06:39:53.943Z,43.87
2018-08-30T06:42:19.277Z,43.84
2018-08-30T06:44:45.965Z,43.75
2018-08-30T06:47:12.785Z,43.76
2018-08-30T06:49:39.497Z,43.86
2018-08-30T06:52:06.229Z,43.58
2018-08-30T06:54:32.903Z,43.48
2018-08-30T06:56:59.541Z,43.58
2018-08-30T06:59:26.200Z,43.63
2018-08-30T07:01:52.842Z,43.92
2018-08-30T07:04:19.653Z,43.76
2018-08-30T07:06:46.290Z,43.60
2018-08-30T07:09:12.933Z,43.37
2018-08-30T07:11:39.590Z,43.65
2018-08-30T07:14:06.226Z,43.80
2018-08-30T07:16:33.010Z,43.99
2018-08-30T07:18:59.734Z,43.94
2018-08-30T07:21:26.383Z,44.24
2018-08-30T07:23:56.433Z,44.07
2018-08-30T07:26:23.108Z,44.39
2018-08-30T07:28:49.749Z,44.65
2018-08-30T07:31:16.433Z,44.46
2018-08-30T07:33:43.088Z,44.28
2018-08-30T07:36:09.748Z,44.24
2018-08-30T07:38:39.002Z,44.17
2018-08-30T07:41:05.662Z,44.15
2018-08-30T07:43:32.315Z,44.17
2018-08-30T07:45:59.002Z,44.29
2018-08-30T07:48:25.660Z,44.44
2018-08-30T07:50:52.436Z,44.17
2018-08-30T07:53:19.108Z,43.96
2018-08-30T07:55:45.786Z,44.22
2018-08-30T07:58:12.399Z,44.15
2018-08-30T08:00:39.140Z,44.42
2018-08-30T08:03:05.797Z,44.46
2018-08-30T08:05:32.461Z,44.39
2018-08-30T08:07:59.245Z,44.52
2018-08-30T08:10:29.290Z,44.17
2018-08-30T08:12:56.074Z,44.39
2018-08-30T08:15:22.710Z,44.20
2018-08-30T08:17:49.523Z,44.16
2018-08-30T08:20:17.174Z,44.43
2018-08-30T08:22:42.861Z,44.44
2018-08-30T08:25:10.012Z,44.30
2018-08-30T08:27:36.648Z,44.03
2018-08-30T08:30:03.296Z,44.36
2018-08-30T08:32:29.977Z,44.68
2018-08-30T08:34:56.665Z,44.24
2018-08-30T08:37:23.277Z,44.45
2018-08-30T08:39:51.262Z,44.66
2018-08-30T08:42:16.575Z,44.92
2018-08-30T08:44:43.294Z,44.74
2018-08-30T08:47:09.895Z,45.12
2018-08-30T08:49:36.591Z,45.28
2018-08-30T08:52:03.286Z,45.47
2018-08-30T08:54:29.931Z,44.97
2018-08-30T08:56:56.672Z,45.09
2018-08-30T08:59:23.388Z,45.85
2018-08-30T09:01:50.064Z,46.03
2018-08-30T09:04:16.726Z,46.19
2018-08-30T09:06:43.383Z,46.52
2018-08-30T09:09:10.034Z,46.61
2018-08-30T09:11:36.726Z,45.98
2018-08-30T09:14:03.338Z,45.66
2018-08-30T09:16:30.024Z,45.33
2018-08-30T09:18:56.660Z,45.25
2018-08-30T09:21:23.302Z,45.11
2018-08-30T09:23:49.963Z,45.63
2018-08-30T09:26:16.626Z,45.36
2018-08-30T09:28:43.368Z,45.33
2018-08-30T09:31:10.098Z,45.39
2018-08-30T09:33:36.781Z,45.40
2018-08-30T09:36:03.420Z,45.71
2018-08-30T09:38:30.327Z,45.74
2018-08-30T09:40:56.967Z,45.55
2018-08-30T09:43:23.703Z,45.25
2018-08-30T09:45:50.365Z,45.41
2018-08-30T09:48:17.053Z,45.78
2018-08-30T09:50:43.684Z,45.50
2018-08-30T09:53:10.470Z,45.58
2018-08-30T09:55:37.183Z,45.82
2018-08-30T09:58:03.885Z,45.71
2018-08-30T10:00:30.630Z,45.34
2018-08-30T10:02:57.346Z,45.08
2018-08-30T10:05:24.001Z,45.12
2018-08-30T10:07:50.720Z,45.40
2018-08-30T10:10:17.334Z,44.96
2018-08-30T10:12:44.033Z,45.03
2018-08-30T10:15:10.853Z,44.69
2018-08-30T10:17:37.602Z,44.70
2018-08-30T10:20:04.291Z,44.49
2018-08-30T10:22:30.929Z,44.20
2018-08-30T10:24:57.584Z,43.83
2018-08-30T10:27:24.259Z,43.73
2018-08-30T10:29:51.007Z,43.72
2018-08-30T10:32:17.744Z,43.57
2018-08-30T10:34:45.862Z,43.67
2018-08-30T10:37:11.230Z,43.83
2018-08-30T10:39:37.983Z,44.45
2018-08-30T10:42:04.686Z,43.63
2018-08-30T10:44:31.290Z,43.93
2018-08-30T10:46:57.952Z,43.90
2018-08-30T10:49:24.678Z,44.37
2018-08-30T10:51:51.297Z,44.34
2018-08-30T10:54:18.036Z,44.33
2018-08-30T10:56:46.322Z,43.91
2018-08-30T10:59:11.377Z,44.25
2018-08-30T11:01:38.104Z,44.13
2018-08-30T11:04:04.809Z,43.95
2018-08-30T11:06:31.443Z,44.44
2018-08-30T11:08:58.145Z,44.07
2018-08-30T11:11:25.871Z,44.21
2018-08-30T11:13:52.670Z,44.10
2018-08-30T11:16:19.311Z,43.74
2018-08-30T11:18:45.954Z,43.69
2018-08-30T11:21:12.650Z,43.77
2018-08-30T11:23:39.676Z,43.93
2018-08-30T11:26:07.959Z,43.70
2018-08-30T11:28:33.010Z,43.79
2018-08-30T11:30:59.931Z,43.60
2018-08-30T11:33:26.664Z,43.74
2018-08-30T11:35:53.435Z,43.36
2018-08-30T11:38:20.244Z,43.22
2018-08-30T11:40:49.414Z,42.84
2018-08-30T11:43:16.155Z,43.19
2018-08-30T11:45:42.940Z,43.07
2018-08-30T11:48:09.590Z,42.98
2018-08-30T11:50:36.233Z,42.81
2018-08-30T11:53:02.877Z,42.93
2018-08-30T11:55:29.537Z,42.86
2018-08-30T11:57:56.186Z,42.80
2018-08-30T12:00:24.232Z,42.51
2018-08-30T12:02:49.521Z,42.34
2018-08-30T12:05:16.162Z,41.91
2018-08-30T12:07:42.855Z,41.95
2018-08-30T12:10:09.558Z,41.72
2018-08-30T12:12:36.309Z,41.92
2018-08-30T12:15:02.956Z,42.02
2018-08-30T12:17:29.689Z,41.86
2018-08-30T12:19:56.493Z,42.00
2018-08-30T12:22:24.348Z,41.65
2018-08-30T12:24:49.871Z,41.86
2018-08-30T12:27:16.507Z,41.58
2018-08-30T12:29:44.571Z,41.71
2018-08-30T12:32:10.072Z,41.48
2018-08-30T12:34:36.762Z,41.51
2018-08-30T12:37:03.418Z,41.61
2018-08-30T12:39:30.060Z,41.34
2018-08-30T12:42:01.407Z,41.22
2018-08-30T12:44:23.488Z,41.29
2018-08-30T12:46:50.134Z,41.51
2018-08-30T12:49:16.789Z,41.30
2018-08-30T12:51:43.640Z,41.26
2018-08-30T12:54:11.371Z,40.99
2018-08-30T12:56:36.793Z,41.02
2018-08-30T12:59:03.598Z,40.91
2018-08-30T13:01:30.352Z,40.92
2018-08-30T13:03:59.978Z,41.11
2018-08-30T13:06:28.263Z,40.66
2018-08-30T13:08:53.412Z,40.82
2018-08-30T13:11:20.024Z,40.80
2018-08-30T13:13:47.150Z,40.35
2018-08-30T13:16:15.310Z,40.60
2018-08-30T13:18:40.584Z,40.61
2018-08-30T13:21:07.288Z,40.51
2018-08-30T13:23:34.121Z,40.22
2018-08-30T13:26:03.868Z,40.20
2018-08-30T13:28:30.398Z,40.01
2018-08-30T13:30:57.218Z,40.00
2018-08-30T13:33:24.175Z,39.95
2018-08-30T13:35:50.742Z,39.91
2018-08-30T13:38:17.876Z,39.64
2018-08-30T13:40:44.642Z,39.68
2018-08-30T13:43:11.116Z,40.05
2018-08-30T13:45:38.035Z,39.77
2018-08-30T13:48:04.434Z,39.57
2018-08-30T13:50:31.142Z,39.66
2018-08-30T13:53:00.940Z,39.70
2018-08-30T13:55:27.675Z,39.81
2018-08-30T13:57:55.757Z,39.60
2018-08-30T14:00:21.350Z,39.54
2018-08-30T14:02:47.622Z,39.45
2018-08-30T14:05:14.637Z,39.34
2018-08-30T14:07:41.144Z,39.41
2018-08-30T14:10:08.187Z,39.23
2018-08-30T14:12:34.762Z,38.97
2018-08-30T14:15:01.580Z,38.95
2018-08-30T14:17:27.724Z,39.03
2018-08-30T14:19:54.359Z,39.08
2018-08-30T14:22:21.142Z,39.25
2018-08-30T14:24:47.841Z,39.10
2018-08-30T14:27:14.648Z,39.20
2018-08-30T14:29:41.221Z,39.14
2018-08-30T14:34:34.713Z,39.07
2018-08-30T14:37:01.439Z,38.87
2018-08-30T14:39:28.182Z,38.87
2018-08-30T14:41:54.953Z,38.91
2018-08-30T14:44:21.593Z,38.93
2018-08-30T14:46:48.247Z,38.64
2018-08-30T14:49:14.987Z,38.59
2018-08-30T14:51:41.626Z,38.82
2018-08-30T14:54:09.746Z,39.02
2018-08-30T14:56:34.938Z,38.56
2018-08-30T14:59:01.655Z,38.82
2018-08-30T15:01:28.281Z,38.52
2018-08-30T15:03:56.283Z,38.38
2018-08-30T15:06:21.521Z,38.47
2018-08-30T15:08:48.206Z,38.51
2018-08-30T15:11:14.932Z,38.42
2018-08-30T15:13:41.672Z,38.62
2018-08-30T15:16:08.204Z,38.94
2018-08-30T15:18:35.857Z,39.03
2018-08-30T15:21:02.504Z,38.82
2018-08-30T15:23:29.318Z,38.98
2018-08-30T15:25:55.954Z,38.79
2018-08-30T15:28:22.664Z,39.51
2018-08-30T15:30:51.531Z,39.51
2018-08-30T15:33:16.057Z,39.58
2018-08-30T15:35:42.853Z,39.54
2018-08-30T15:38:09.568Z,39.17
2018-08-30T15:40:37.622Z,39.61
2018-08-30T15:43:02.874Z,39.51
2018-08-30T15:45:29.559Z,39.73
2018-08-30T15:47:56.213Z,39.73
2018-08-30T15:50:23.008Z,38.89
2018-08-30T15:52:49.624Z,39.48
2018-08-30T15:55:17.974Z,39.27
2018-08-30T15:57:43.077Z,38.97
2018-08-30T16:00:09.742Z,38.89
2018-08-30T16:02:36.467Z,39.01
2018-08-30T16:05:03.175Z,39.00
2018-08-30T16:07:29.834Z,38.79
2018-08-30T16:09:56.534Z,38.63
2018-08-30T16:12:23.268Z,38.69
2018-08-30T16:14:50.011Z,38.91
2018-08-30T16:17:16.749Z,38.71
2018-08-30T16:19:43.352Z,38.28
2018-08-30T16:22:10.047Z,38.59
2018-08-30T16:24:36.848Z,38.40
2018-08-30T16:27:03.535Z,38.55
2018-08-30T16:29:30.332Z,38.92
2018-08-30T16:31:56.956Z,38.54
2018-08-30T16:34:23.695Z,38.70
2018-08-30T16:36:50.295Z,38.76
2018-08-30T16:39:16.944Z,39.03
2018-08-30T16:41:44.995Z,40.16
2018-08-30T16:44:10.351Z,40.27
2018-08-30T16:46:38.256Z,40.40
2018-08-30T16:49:03.672Z,40.57
2018-08-30T16:51:30.286Z,40.70
2018-08-30T16:53:56.975Z,40.92
2018-08-30T16:56:23.727Z,40.76
2018-08-30T16:58:50.322Z,40.78
2018-08-30T17:01:16.969Z,40.85
2018-08-30T17:03:48.856Z,40.87
2018-08-30T17:06:13.396Z,40.77
2018-08-30T17:08:40.288Z,39.99
2018-08-30T17:11:06.777Z,40.26
2018-08-30T17:13:33.414Z,40.11
2018-08-30T17:16:00.178Z,41.92
2018-08-30T17:18:26.822Z,41.86
2018-08-30T17:20:53.460Z,41.76
2018-08-30T17:23:20.155Z,41.99
2018-08-30T17:25:46.902Z,41.63
2018-08-30T17:28:13.586Z,41.46
2018-08-30T17:30:43.142Z,41.47
2018-08-30T17:33:12.733Z,41.48
2018-08-30T17:35:39.417Z,41.62
2018-08-30T17:38:06.064Z,41.65
2018-08-30T17:40:32.716Z,41.82
2018-08-30T17:42:59.353Z,41.69
2018-08-30T17:45:26.094Z,41.87
2018-08-30T17:47:52.770Z,41.87
2018-08-30T17:50:19.449Z,41.89
2018-08-30T17:52:46.033Z,41.91
2018-08-30T17:55:12.671Z,41.99
2018-08-30T17:57:39.360Z,41.96
2018-08-30T18:00:05.997Z,42.06
2018-08-30T18:02:34.261Z,42.09
2018-08-30T18:04:59.309Z,42.13
2018-08-30T18:07:25.990Z,42.34
2018-08-30T18:09:52.632Z,42.20
2018-08-30T18:12:19.283Z,42.25
2018-08-30T18:14:45.975Z,42.26
2018-08-30T18:17:12.620Z,42.35
2018-08-30T18:19:39.272Z,42.56
2018-08-30T18:22:05.952Z,42.52
2018-08-30T18:24:32.579Z,42.56
2018-08-30T18:27:01.011Z,42.56
2018-08-30T18:29:26.072Z,42.40
2018-08-30T18:31:52.676Z,42.65
2018-08-30T18:34:19.361Z,42.80
2018-08-30T18:36:49.045Z,42.75
2018-08-30T18:39:16.744Z,42.72
2018-08-30T18:41:42.368Z,42.74
2018-08-30T18:44:09.026Z,42.89
2018-08-30T18:46:35.709Z,42.87
2018-08-30T18:49:02.375Z,42.86
2018-08-30T18:51:29.099Z,42.80
2018-08-30T18:53:55.712Z,42.94
2018-08-30T18:56:22.374Z,42.87
2018-08-30T18:58:49.036Z,42.98
2018-08-30T19:01:15.685Z,42.86
2018-08-30T19:03:42.351Z,42.90
2018-08-30T19:06:08.966Z,42.97
2018-08-30T19:08:35.603Z,42.95
2018-08-30T19:11:02.254Z,42.96
2018-08-30T19:13:28.913Z,43.08
2018-08-30T19:15:57.503Z,43.24
2018-08-30T19:18:22.284Z,43.16
2018-08-30T19:20:48.934Z,43.14
2018-08-30T19:23:15.599Z,43.17
2018-08-30T19:25:45.141Z,43.20
2018-08-30T19:28:11.826Z,43.21
2018-08-30T19:30:38.467Z,43.16
2018-08-30T19:33:05.199Z,43.12
2018-08-30T19:35:32.988Z,43.24
2018-08-30T19:37:58.459Z,43.25
2018-08-30T19:40:25.172Z,43.18
2018-08-30T19:42:51.828Z,43.17
2018-08-30T19:45:23.057Z,43.20
2018-08-30T19:47:49.352Z,43.26
2018-08-30T19:50:15.997Z,43.21
2018-08-30T19:52:42.631Z,43.22
2018-08-30T19:55:10.626Z,43.25
2018-08-30T19:57:35.910Z,43.28
2018-08-30T20:00:02.557Z,43.26
2018-08-30T20:02:29.349Z,43.20
2018-08-30T20:04:56.010Z,43.22
2018-08-30T20:07:22.792Z,43.23
2018-08-30T20:09:49.520Z,43.13
2018-08-30T20:12:16.178Z,43.17
2018-08-30T20:14:42.951Z,43.17
2018-08-30T20:17:09.589Z,43.22
2018-08-30T20:19:36.551Z,43.18
2018-08-30T20:22:03.206Z,43.26
2018-08-30T20:24:29.838Z,43.20
2018-08-30T20:26:58.707Z,43.19
2018-08-30T20:29:23.110Z,43.13
2018-08-30T20:31:49.823Z,43.19
2018-08-30T20:34:16.466Z,43.27
2018-08-30T20:36:45.019Z,43.17
2018-08-30T20:39:09.795Z,43.17
2018-08-30T20:41:36.537Z,43.15
2018-08-30T20:44:03.184Z,43.09
2018-08-30T20:46:29.882Z,43.14
2018-08-30T20:48:56.469Z,43.08
2018-08-30T20:51:24.198Z,43.04
2018-08-30T20:53:52.659Z,43.15
2018-08-30T20:56:20.657Z,43.17
2018-08-30T20:58:45.942Z,43.22
2018-08-30T21:01:12.752Z,43.17
2018-08-30T21:03:39.396Z,43.14
2018-08-30T21:06:09.280Z,43.14
2018-08-30T21:08:35.918Z,43.09
2018-08-30T21:11:02.571Z,43.03
2018-08-30T21:13:29.277Z,43.12
2018-08-30T21:15:55.959Z,43.08
2018-08-30T21:18:22.569Z,43.09
2018-08-30T21:20:49.217Z,43.00
2018-08-30T21:23:15.849Z,43.11
2018-08-30T21:25:42.505Z,43.10
2018-08-30T21:28:09.198Z,43.00
2018-08-30T21:30:35.839Z,43.09
2018-08-30T21:33:02.580Z,43.07
2018-08-30T21:35:29.229Z,42.99
2018-08-30T21:37:55.962Z,42.97
2018-08-30T21:40:22.621Z,43.03
2018-08-30T21:42:49.313Z,42.97
2018-08-30T21:45:15.996Z,42.96
2018-08-30T21:47:44.043Z,42.93
2018-08-30T21:50:10.968Z,42.94
2018-08-30T21:52:35.934Z,42.95
2018-08-30T21:55:02.579Z,42.94
2018-08-30T21:57:29.264Z,42.90
2018-08-30T21:59:55.917Z,42.94
2018-08-30T22:02:22.689Z,42.94
2018-08-30T22:04:49.332Z,42.91
2018-08-30T22:07:15.998Z,42.93
2018-08-30T22:09:42.629Z,42.89
2018-08-30T22:12:09.245Z,42.91
2018-08-30T22:14:35.895Z,42.89
2018-08-30T22:17:02.625Z,42.99
2018-08-30T22:19:29.273Z,43.03
2018-08-30T22:21:55.911Z,43.02
2018-08-30T22:24:22.558Z,43.03
2018-08-30T22:26:49.223Z,42.94
2018-08-30T22:29:15.855Z,42.96
2018-08-30T22:31:42.493Z,43.00
2018-08-30T22:34:09.143Z,42.96
2018-08-30T22:36:35.790Z,43.00
2018-08-30T22:39:04.679Z,42.96
2018-08-30T22:41:29.120Z,42.96
2018-08-30T22:43:55.763Z,42.91
2018-08-30T22:46:22.402Z,42.96
2018-08-30T22:48:49.064Z,42.93
2018-08-30T22:51:15.742Z,42.95
2018-08-30T22:53:42.370Z,42.96
2018-08-30T22:56:09.007Z,42.95
2018-08-30T22:58:35.694Z,42.96
2018-08-30T23:01:02.428Z,42.91
2018-08-30T23:03:29.135Z,42.87
2018-08-30T23:05:55.810Z,42.91
2018-08-30T23:08:22.459Z,42.84
2018-08-30T23:10:51.985Z,42.90
2018-08-30T23:13:18.664Z,42.89
2018-08-30T23:15:48.320Z,42.83
2018-08-30T23:18:14.971Z,42.83
2018-08-30T23:20:41.613Z,42.88
2018-08-30T23:23:08.279Z,42.91
2018-08-30T23:25:34.959Z,42.87
2018-08-30T23:28:01.646Z,42.81
2018-08-30T23:30:33.915Z,42.87
2018-08-30T23:32:58.279Z,42.88
2018-08-30T23:35:25.262Z,42.83
2018-08-30T23:37:51.942Z,42.80
2018-08-30T23:40:18.590Z,42.86
2018-08-30T23:42:45.325Z,42.84
2018-08-30T23:45:12.020Z,42.83
2018-08-30T23:47:38.667Z,42.81
2018-08-30T23:50:05.305Z,42.84
2018-08-30T23:52:31.954Z,42.76
2018-08-30T23:54:58.589Z,42.81
2018-08-30T23:57:26.475Z,42.82
2018-08-30T23:59:51.884Z,42.83
